sensor_id;sensor_type;location;lat;lon;timestamp;pressure;altitude;pressure_sealevel;temperature;humidity
60170;BME280;46042;49.444;6.862;2023-07-13T00:01:53;98709.22;;;15.01;79.52
60170;BME280;46042;49.444;6.862;2023-07-13T00:04:23;98697.44;;;14.93;79.16
60170;BME280;46042;49.444;6.862;2023-07-13T00:06:52;98699.63;;;14.88;79.10
60170;BME280;46042;49.444;6.862;2023-07-13T00:09:19;98695.53;;;14.84;80.36
60170;BME280;46042;49.444;6.862;2023-07-13T00:11:51;98688.13;;;14.78;79.83
60170;BME280;46042;49.444;6.862;2023-07-13T00:14:18;98685.56;;;14.76;78.67
60170;BME280;46042;49.444;6.862;2023-07-13T00:16:45;98686.44;;;14.77;80.82
60170;BME280;46042;49.444;6.862;2023-07-13T00:19:13;98685.47;;;14.67;80.01
60170;BME280;46042;49.444;6.862;2023-07-13T00:21:40;98690.66;;;14.68;81.96
60170;BME280;46042;49.444;6.862;2023-07-13T00:24:13;98685.00;;;14.61;81.57
60170;BME280;46042;49.444;6.862;2023-07-13T00:26:41;98695.16;;;14.56;82.21
60170;BME280;46042;49.444;6.862;2023-07-13T00:29:12;98691.06;;;14.52;82.53
60170;BME280;46042;49.444;6.862;2023-07-13T00:31:40;98681.41;;;14.51;82.52
60170;BME280;46042;49.444;6.862;2023-07-13T00:34:07;98682.03;;;14.43;82.21
60170;BME280;46042;49.444;6.862;2023-07-13T00:36:33;98680.25;;;14.44;82.68
60170;BME280;46042;49.444;6.862;2023-07-13T00:39:01;98680.50;;;14.41;82.18
60170;BME280;46042;49.444;6.862;2023-07-13T00:41:28;98684.84;;;14.30;82.21
60170;BME280;46042;49.444;6.862;2023-07-13T00:43:54;98680.06;;;14.24;83.61
60170;BME280;46042;49.444;6.862;2023-07-13T00:46:26;98683.44;;;14.15;82.73
60170;BME280;46042;49.444;6.862;2023-07-13T00:48:55;98691.03;;;14.08;83.79
60170;BME280;46042;49.444;6.862;2023-07-13T00:54:07;98690.22;;;13.73;87.71
60170;BME280;46042;49.444;6.862;2023-07-13T00:56:35;98696.97;;;13.77;85.97
60170;BME280;46042;49.444;6.862;2023-07-13T00:59:04;98700.94;;;13.83;87.32
60170;BME280;46042;49.444;6.862;2023-07-13T01:01:33;98699.59;;;13.77;87.62
60170;BME280;46042;49.444;6.862;2023-07-13T01:03:59;98707.31;;;13.80;87.11
60170;BME280;46042;49.444;6.862;2023-07-13T01:06:26;98718.50;;;13.84;86.25
60170;BME280;46042;49.444;6.862;2023-07-13T01:08:53;98707.78;;;13.86;87.30
60170;BME280;46042;49.444;6.862;2023-07-13T01:11:21;98703.44;;;13.85;87.13
60170;BME280;46042;49.444;6.862;2023-07-13T01:13:49;98703.81;;;13.80;87.74
60170;BME280;46042;49.444;6.862;2023-07-13T01:16:26;98712.72;;;13.79;87.66
60170;BME280;46042;49.444;6.862;2023-07-13T01:18:54;98716.81;;;13.83;87.75
60170;BME280;46042;49.444;6.862;2023-07-13T01:21:25;98711.38;;;13.85;89.09
60170;BME280;46042;49.444;6.862;2023-07-13T01:23:52;98710.31;;;13.87;88.79
60170;BME280;46042;49.444;6.862;2023-07-13T01:26:19;98716.47;;;13.88;89.05
60170;BME280;46042;49.444;6.862;2023-07-13T01:28:46;98723.66;;;13.86;88.68
60170;BME280;46042;49.444;6.862;2023-07-13T01:31:12;98724.03;;;13.81;89.27
60170;BME280;46042;49.444;6.862;2023-07-13T01:33:40;98729.44;;;13.79;89.17
60170;BME280;46042;49.444;6.862;2023-07-13T01:36:09;98724.41;;;13.88;89.83
60170;BME280;46042;49.444;6.862;2023-07-13T01:38:37;98726.09;;;13.89;89.07
60170;BME280;46042;49.444;6.862;2023-07-13T01:41:04;98722.47;;;13.90;90.70
60170;BME280;46042;49.444;6.862;2023-07-13T01:43:30;98726.09;;;13.89;89.71
60170;BME280;46042;49.444;6.862;2023-07-13T01:45:57;98728.75;;;13.89;90.54
60170;BME280;46042;49.444;6.862;2023-07-13T01:48:44;98726.09;;;13.89;89.93
60170;BME280;46042;49.444;6.862;2023-07-13T01:51:10;98735.00;;;13.88;88.97
60170;BME280;46042;49.444;6.862;2023-07-13T01:53:37;98730.44;;;13.90;89.24
60170;BME280;46042;49.444;6.862;2023-07-13T01:56:04;98728.75;;;13.89;88.80
60170;BME280;46042;49.444;6.862;2023-07-13T01:58:30;98733.44;;;13.85;87.46
60170;BME280;46042;49.444;6.862;2023-07-13T02:00:57;98735.34;;;13.83;88.34
60170;BME280;46042;49.444;6.862;2023-07-13T02:03:24;98738.09;;;13.82;88.96
60170;BME280;46042;49.444;6.862;2023-07-13T02:05:51;98743.75;;;13.77;88.42
60170;BME280;46042;49.444;6.862;2023-07-13T02:08:17;98733.66;;;13.82;90.15
60170;BME280;46042;49.444;6.862;2023-07-13T02:10:44;98730.66;;;13.75;87.88
60170;BME280;46042;49.444;6.862;2023-07-13T02:13:11;98733.31;;;13.75;89.00
60170;BME280;46042;49.444;6.862;2023-07-13T02:15:40;98731.88;;;13.71;87.98
60170;BME280;46042;49.444;6.862;2023-07-13T02:18:07;98728.59;;;13.68;88.87
60170;BME280;46042;49.444;6.862;2023-07-13T02:20:35;98730.88;;;13.61;88.46
60170;BME280;46042;49.444;6.862;2023-07-13T02:23:02;98744.13;;;13.61;88.40
60170;BME280;46042;49.444;6.862;2023-07-13T02:25:29;98746.66;;;13.62;89.60
60170;BME280;46042;49.444;6.862;2023-07-13T02:27:55;98738.09;;;13.59;90.00
60170;BME280;46042;49.444;6.862;2023-07-13T02:30:22;98737.72;;;13.52;89.67
60170;BME280;46042;49.444;6.862;2023-07-13T02:32:51;98742.78;;;13.55;90.72
60170;BME280;46042;49.444;6.862;2023-07-13T02:35:18;98729.44;;;13.57;91.09
60170;BME280;46042;49.444;6.862;2023-07-13T02:37:44;98732.19;;;13.55;90.42
60170;BME280;46042;49.444;6.862;2023-07-13T02:40:11;98733.28;;;13.53;90.54
60170;BME280;46042;49.444;6.862;2023-07-13T02:42:38;98725.44;;;13.51;90.51
60170;BME280;46042;49.444;6.862;2023-07-13T02:45:07;98726.19;;;13.53;90.98
60170;BME280;46042;49.444;6.862;2023-07-13T02:47:36;98732.19;;;13.55;89.54
60170;BME280;46042;49.444;6.862;2023-07-13T02:50:03;98728.72;;;13.55;90.41
60170;BME280;46042;49.444;6.862;2023-07-13T02:52:30;98738.59;;;13.53;90.06
60170;BME280;46042;49.444;6.862;2023-07-13T02:54:56;98740.25;;;13.54;92.20
60170;BME280;46042;49.444;6.862;2023-07-13T02:57:23;98744.59;;;13.55;92.39
60170;BME280;46042;49.444;6.862;2023-07-13T02:59:50;98739.50;;;13.51;92.91
60170;BME280;46042;49.444;6.862;2023-07-13T03:02:16;98743.59;;;13.44;93.61
60170;BME280;46042;49.444;6.862;2023-07-13T03:04:44;98746.31;;;13.43;94.80
60170;BME280;46042;49.444;6.862;2023-07-13T03:07:11;98749.84;;;13.43;93.49
60170;BME280;46042;49.444;6.862;2023-07-13T03:09:39;98750.56;;;13.45;93.28
60170;BME280;46042;49.444;6.862;2023-07-13T03:12:08;98748.41;;;13.50;95.50
60170;BME280;46042;49.444;6.862;2023-07-13T03:14:34;98756.50;;;13.49;93.80
60170;BME280;46042;49.444;6.862;2023-07-13T03:17:01;98751.84;;;13.40;93.76
60170;BME280;46042;49.444;6.862;2023-07-13T03:19:28;98760.09;;;13.48;95.90
60170;BME280;46042;49.444;6.862;2023-07-13T03:21:55;98761.88;;;13.47;94.88
60170;BME280;46042;49.444;6.862;2023-07-13T03:24:21;98765.25;;;13.49;94.25
60170;BME280;46042;49.444;6.862;2023-07-13T03:26:49;98760.34;;;13.56;94.71
60170;BME280;46042;49.444;6.862;2023-07-13T03:29:16;98757.59;;;13.58;94.41
60170;BME280;46042;49.444;6.862;2023-07-13T03:31:43;98757.22;;;13.51;92.73
60170;BME280;46042;49.444;6.862;2023-07-13T03:34:09;98759.50;;;13.56;94.73
60170;BME280;46042;49.444;6.862;2023-07-13T03:36:36;98759.50;;;13.56;95.32
60170;BME280;46042;49.444;6.862;2023-07-13T03:39:03;98769.13;;;13.57;94.10
60170;BME280;46042;49.444;6.862;2023-07-13T03:41:30;98768.91;;;13.60;95.47
60170;BME280;46042;49.444;6.862;2023-07-13T03:43:58;98767.78;;;13.51;95.52
60170;BME280;46042;49.444;6.862;2023-07-13T03:46:25;98768.91;;;13.60;95.11
60170;BME280;46042;49.444;6.862;2023-07-13T03:48:51;98767.06;;;13.60;93.98
60170;BME280;46042;49.444;6.862;2023-07-13T03:51:19;98773.72;;;13.66;95.10
60170;BME280;46042;49.444;6.862;2023-07-13T03:53:47;98777.81;;;13.70;95.14
60170;BME280;46042;49.444;6.862;2023-07-13T03:56:15;98770.72;;;13.71;93.81
60170;BME280;46042;49.444;6.862;2023-07-13T03:58:44;98778.03;;;13.67;93.90
60170;BME280;46042;49.444;6.862;2023-07-13T04:01:12;98779.63;;;13.70;93.86
60170;BME280;46042;49.444;6.862;2023-07-13T04:03:39;98779.50;;;13.71;96.31
60170;BME280;46042;49.444;6.862;2023-07-13T04:06:13;98781.19;;;13.72;95.50
60170;BME280;46042;49.444;6.862;2023-07-13T04:08:42;98773.25;;;13.72;94.90
60170;BME280;46042;49.444;6.862;2023-07-13T04:11:09;98781.69;;;13.77;94.65
60170;BME280;46042;49.444;6.862;2023-07-13T04:13:35;98781.44;;;13.80;95.95
60170;BME280;46042;49.444;6.862;2023-07-13T04:16:02;98789.50;;;13.79;93.96
60170;BME280;46042;49.444;6.862;2023-07-13T04:18:28;98792.16;;;13.79;92.91
60170;BME280;46042;49.444;6.862;2023-07-13T04:20:55;98788.19;;;13.96;92.83
60170;BME280;46042;49.444;6.862;2023-07-13T04:23:22;98790.50;;;14.01;92.75
60170;BME280;46042;49.444;6.862;2023-07-13T04:25:51;98788.66;;;14.01;93.51
60170;BME280;46042;49.444;6.862;2023-07-13T04:28:23;98788.31;;;14.06;94.32
60170;BME280;46042;49.444;6.862;2023-07-13T04:30:50;98786.50;;;14.18;94.24
60170;BME280;46042;49.444;6.862;2023-07-13T04:33:17;98790.47;;;14.23;93.42
60170;BME280;46042;49.444;6.862;2023-07-13T04:35:44;98799.16;;;14.26;92.64
60170;BME280;46042;49.444;6.862;2023-07-13T04:38:17;98789.28;;;14.28;91.26
60170;BME280;46042;49.444;6.862;2023-07-13T04:40:45;98795.06;;;14.33;94.33
60170;BME280;46042;49.444;6.862;2023-07-13T04:43:18;98793.97;;;14.35;93.46
60170;BME280;46042;49.444;6.862;2023-07-13T04:45:45;98798.78;;;14.42;94.83
60170;BME280;46042;49.444;6.862;2023-07-13T04:48:15;98800.47;;;14.43;93.89
60170;BME280;46042;49.444;6.862;2023-07-13T04:50:45;98807.94;;;14.37;93.60
60170;BME280;46042;49.444;6.862;2023-07-13T04:53:21;98794.22;;;14.32;92.64
60170;BME280;46042;49.444;6.862;2023-07-13T04:55:54;98800.72;;;14.28;91.49
60170;BME280;46042;49.444;6.862;2023-07-13T04:58:27;98808.19;;;14.34;92.99
60170;BME280;46042;49.444;6.862;2023-07-13T05:01:00;98803.84;;;14.45;93.43
60170;BME280;46042;49.444;6.862;2023-07-13T05:03:28;98811.78;;;14.45;94.46
60170;BME280;46042;49.444;6.862;2023-07-13T05:06:07;98815.28;;;14.45;92.21
60170;BME280;46042;49.444;6.862;2023-07-13T05:08:39;98816.34;;;14.54;91.63
60170;BME280;46042;49.444;6.862;2023-07-13T05:11:07;98800.81;;;14.61;91.84
60170;BME280;46042;49.444;6.862;2023-07-13T05:13:40;98804.06;;;14.76;94.22
60170;BME280;46042;49.444;6.862;2023-07-13T05:16:10;98805.97;;;14.85;nan
60170;BME280;46042;49.444;6.862;2023-07-13T05:18:43;98806.56;;;14.89;91.82
60170;BME280;46042;49.444;6.862;2023-07-13T05:21:17;98810.78;;;14.91;93.03
60170;BME280;46042;49.444;6.862;2023-07-13T05:23:49;98810.78;;;14.91;91.89
60170;BME280;46042;49.444;6.862;2023-07-13T05:26:22;98815.13;;;14.92;91.39
60170;BME280;46042;49.444;6.862;2023-07-13T05:28:51;98813.66;;;15.00;92.35
60170;BME280;46042;49.444;6.862;2023-07-13T05:31:18;98810.72;;;15.14;94.63
60170;BME280;46042;49.444;6.862;2023-07-13T05:33:51;98800.38;;;15.32;92.83
60170;BME280;46042;49.444;6.862;2023-07-13T05:36:18;98807.13;;;15.58;93.29
60170;BME280;46042;49.444;6.862;2023-07-13T05:38:45;98813.28;;;15.79;96.99
60170;BME280;46042;49.444;6.862;2023-07-13T05:41:12;98816.06;;;15.99;90.65
60170;BME280;46042;49.444;6.862;2023-07-13T05:43:41;98816.97;;;16.10;92.36
60170;BME280;46042;49.444;6.862;2023-07-13T05:46:08;98824.94;;;16.10;95.66
60170;BME280;46042;49.444;6.862;2023-07-13T05:48:58;98816.25;;;16.07;88.85
60170;BME280;46042;49.444;6.862;2023-07-13T05:51:33;98808.03;;;16.11;88.69
60170;BME280;46042;49.444;6.862;2023-07-13T05:54:08;98818.66;;;16.11;85.36
60170;BME280;46042;49.444;6.862;2023-07-13T05:56:39;98813.47;;;16.09;83.01
60170;BME280;46042;49.444;6.862;2023-07-13T05:59:09;98825.06;;;16.08;84.07
60170;BME280;46042;49.444;6.862;2023-07-13T06:01:35;98827.59;;;16.10;84.21
60170;BME280;46042;49.444;6.862;2023-07-13T06:04:04;98831.09;;;16.10;82.83
60170;BME280;46042;49.444;6.862;2023-07-13T06:06:31;98838.75;;;16.34;82.30
60170;BME280;46042;49.444;6.862;2023-07-13T06:09:00;98830.44;;;16.49;82.36
60170;BME280;46042;49.444;6.862;2023-07-13T06:11:28;98839.38;;;16.48;79.90
60170;BME280;46042;49.444;6.862;2023-07-13T06:13:59;98840.22;;;16.58;79.13
60170;BME280;46042;49.444;6.862;2023-07-13T06:16:26;98837.06;;;16.64;79.83
60170;BME280;46042;49.444;6.862;2023-07-13T06:18:53;98841.00;;;16.70;78.98
60170;BME280;46042;49.444;6.862;2023-07-13T06:21:21;98840.44;;;16.76;85.76
60170;BME280;46042;49.444;6.862;2023-07-13T06:23:50;98846.19;;;16.82;80.87
60170;BME280;46042;49.444;6.862;2023-07-13T06:26:19;98846.78;;;16.95;77.69
60170;BME280;46042;49.444;6.862;2023-07-13T06:28:49;98847.25;;;17.10;88.04
60170;BME280;46042;49.444;6.862;2023-07-13T06:31:24;98843.06;;;17.08;95.35
60170;BME280;46042;49.444;6.862;2023-07-13T06:33:53;98843.19;;;17.26;92.96
60170;BME280;46042;49.444;6.862;2023-07-13T06:36:20;98847.41;;;17.38;100.00
60170;BME280;46042;49.444;6.862;2023-07-13T06:38:47;98846.00;;;17.54;94.81
60170;BME280;46042;49.444;6.862;2023-07-13T06:41:14;98854.00;;;17.54;94.51
60170;BME280;46042;49.444;6.862;2023-07-13T06:43:48;98856.38;;;17.37;82.37
60170;BME280;46042;49.444;6.862;2023-07-13T06:46:15;98854.84;;;17.44;90.54
60170;BME280;46042;49.444;6.862;2023-07-13T06:48:44;98854.97;;;17.53;93.63
60170;BME280;46042;49.444;6.862;2023-07-13T06:51:15;98866.63;;;17.42;79.74
60170;BME280;46042;49.444;6.862;2023-07-13T06:53:48;98855.56;;;17.56;83.96
60170;BME280;46042;49.444;6.862;2023-07-13T06:56:19;98861.22;;;18.01;80.31
60170;BME280;46042;49.444;6.862;2023-07-13T06:58:57;98858.63;;;18.39;75.17
60170;BME280;46042;49.444;6.862;2023-07-13T07:01:24;98856.50;;;18.42;72.56
60170;BME280;46042;49.444;6.862;2023-07-13T07:03:55;98852.84;;;18.71;80.74
60170;BME280;46042;49.444;6.862;2023-07-13T07:06:23;98861.44;;;19.03;75.22
60170;BME280;46042;49.444;6.862;2023-07-13T07:08:52;98856.53;;;19.16;73.58
60170;BME280;46042;49.444;6.862;2023-07-13T07:11:25;98863.19;;;19.12;66.51
60170;BME280;46042;49.444;6.862;2023-07-13T07:13:57;98861.38;;;19.13;76.58
60170;BME280;46042;49.444;6.862;2023-07-13T07:16:26;98856.53;;;19.16;65.35
60170;BME280;46042;49.444;6.862;2023-07-13T07:19:05;98866.25;;;19.17;63.56
60170;BME280;46042;49.444;6.862;2023-07-13T07:21:38;98869.38;;;19.31;64.28
60170;BME280;46042;49.444;6.862;2023-07-13T07:24:11;98870.31;;;19.58;63.38
60170;BME280;46042;49.444;6.862;2023-07-13T07:26:38;98864.47;;;19.99;75.61
60170;BME280;46042;49.444;6.862;2023-07-13T07:29:08;98867.56;;;20.12;61.68
60170;BME280;46042;49.444;6.862;2023-07-13T07:31:38;98865.19;;;20.09;56.66
60170;BME280;46042;49.444;6.862;2023-07-13T07:34:07;98864.09;;;20.46;66.50
60170;BME280;46042;49.444;6.862;2023-07-13T07:36:34;98875.00;;;20.61;59.15
60170;BME280;46042;49.444;6.862;2023-07-13T07:39:04;98878.72;;;20.69;60.19
60170;BME280;46042;49.444;6.862;2023-07-13T07:41:33;98876.31;;;20.92;65.31
60170;BME280;46042;49.444;6.862;2023-07-13T07:44:03;98868.53;;;21.15;60.06
60170;BME280;46042;49.444;6.862;2023-07-13T07:46:30;98879.63;;;21.54;62.87
60170;BME280;46042;49.444;6.862;2023-07-13T07:48:57;98871.75;;;21.60;59.77
60170;BME280;46042;49.444;6.862;2023-07-13T07:51:23;98876.50;;;21.67;55.58
60170;BME280;46042;49.444;6.862;2023-07-13T07:53:50;98875.97;;;22.13;63.59
60170;BME280;46042;49.444;6.862;2023-07-13T07:56:17;98879.06;;;22.33;59.40
60170;BME280;46042;49.444;6.862;2023-07-13T07:58:47;98884.34;;;22.10;53.48
60170;BME280;46042;49.444;6.862;2023-07-13T08:01:17;98890.50;;;22.27;61.88
60170;BME280;46042;49.444;6.862;2023-07-13T08:03:47;98878.81;;;22.03;52.83
60170;BME280;46042;49.444;6.862;2023-07-13T08:06:16;98882.53;;;21.69;54.38
60170;BME280;46042;49.444;6.862;2023-07-13T08:08:48;98888.00;;;21.42;53.41
60170;BME280;46042;49.444;6.862;2023-07-13T08:11:16;98888.56;;;21.71;56.19
60170;BME280;46042;49.444;6.862;2023-07-13T08:13:46;98878.84;;;21.86;58.50
60170;BME280;46042;49.444;6.862;2023-07-13T08:16:12;98881.69;;;21.93;57.06
60170;BME280;46042;49.444;6.862;2023-07-13T08:18:39;98870.56;;;22.29;55.29
60170;BME280;46042;49.444;6.862;2023-07-13T08:21:07;98874.09;;;22.22;50.65
60170;BME280;46042;49.444;6.862;2023-07-13T08:23:35;98868.94;;;21.95;48.90
60170;BME280;46042;49.444;6.862;2023-07-13T08:26:03;98866.53;;;22.25;52.29
60170;BME280;46042;49.444;6.862;2023-07-13T08:28:31;98874.53;;;22.42;51.04
60170;BME280;46042;49.444;6.862;2023-07-13T08:31:06;98870.28;;;22.64;53.81
60170;BME280;46042;49.444;6.862;2023-07-13T08:33:37;98867.06;;;22.77;51.70
60170;BME280;46042;49.444;6.862;2023-07-13T08:36:04;98866.28;;;22.68;56.34
60170;BME280;46042;49.444;6.862;2023-07-13T08:38:32;98870.34;;;22.96;53.01
60170;BME280;46042;49.444;6.862;2023-07-13T08:41:05;98872.91;;;22.81;52.13
60170;BME280;46042;49.444;6.862;2023-07-13T08:43:37;98876.34;;;23.38;56.87
60170;BME280;46042;49.444;6.862;2023-07-13T08:48:47;98869.69;;;23.49;48.63
60170;BME280;46042;49.444;6.862;2023-07-13T08:51:26;98869.81;;;23.94;50.06
60170;BME280;46042;49.444;6.862;2023-07-13T08:54:00;98870.84;;;23.54;46.60
60170;BME280;46042;49.444;6.862;2023-07-13T08:56:30;98870.50;;;23.72;46.99
60170;BME280;46042;49.444;6.862;2023-07-13T08:59:06;98863.59;;;24.32;48.93
60170;BME280;46042;49.444;6.862;2023-07-13T09:04:19;98864.25;;;23.95;43.86
60170;BME280;46042;49.444;6.862;2023-07-13T09:06:58;98863.59;;;24.47;46.11
60170;BME280;46042;49.444;6.862;2023-07-13T09:09:43;98858.94;;;24.55;48.73
60170;BME280;46042;49.444;6.862;2023-07-13T09:14:51;98854.00;;;24.89;44.86
60170;BME280;46042;49.444;6.862;2023-07-13T09:17:24;98853.63;;;25.73;54.99
60170;BME280;46042;49.444;6.862;2023-07-13T09:20:00;98867.16;;;25.36;43.46
60170;BME280;46042;49.444;6.862;2023-07-13T09:22:32;98851.56;;;26.03;50.22
60170;BME280;46042;49.444;6.862;2023-07-13T09:27:49;98850.94;;;25.51;41.81
60170;BME280;46042;49.444;6.862;2023-07-13T09:30:25;98853.44;;;26.03;43.43
60170;BME280;46042;49.444;6.862;2023-07-13T09:32:54;98865.06;;;26.03;39.42
60170;BME280;46042;49.444;6.862;2023-07-13T09:35:25;98865.94;;;26.10;42.70
60170;BME280;46042;49.444;6.862;2023-07-13T09:37:59;98859.25;;;25.78;45.86
60170;BME280;46042;49.444;6.862;2023-07-13T09:40:40;98859.38;;;25.26;45.82
60170;BME280;46042;49.444;6.862;2023-07-13T09:43:13;98860.59;;;25.23;43.92
60170;BME280;46042;49.444;6.862;2023-07-13T09:45:45;98863.19;;;24.65;47.77
60170;BME280;46042;49.444;6.862;2023-07-13T09:48:16;98867.28;;;24.15;42.97
60170;BME280;46042;49.444;6.862;2023-07-13T09:50:44;98864.88;;;24.21;45.37
60170;BME280;46042;49.444;6.862;2023-07-13T09:53:16;98869.06;;;25.20;47.74
60170;BME280;46042;49.444;6.862;2023-07-13T09:55:45;98871.84;;;25.92;44.41
60170;BME280;46042;49.444;6.862;2023-07-13T09:58:24;98872.63;;;25.86;41.92
60170;BME280;46042;49.444;6.862;2023-07-13T10:01:00;98873.28;;;25.08;47.52
60170;BME280;46042;49.444;6.862;2023-07-13T10:03:35;98880.28;;;24.42;42.79
60170;BME280;46042;49.444;6.862;2023-07-13T10:06:19;98878.53;;;24.34;46.79
60170;BME280;46042;49.444;6.862;2023-07-13T10:08:46;98879.28;;;23.90;42.49
60170;BME280;46042;49.444;6.862;2023-07-13T10:11:22;98870.19;;;24.29;44.25
60170;BME280;46042;49.444;6.862;2023-07-13T10:16:25;98874.94;;;23.65;43.61
60170;BME280;46042;49.444;6.862;2023-07-13T10:18:58;98871.44;;;24.03;45.99
60170;BME280;46042;49.444;6.862;2023-07-13T10:21:38;98873.34;;;23.94;44.49
60170;BME280;46042;49.444;6.862;2023-07-13T10:24:18;98859.59;;;24.27;43.29
60170;BME280;46042;49.444;6.862;2023-07-13T10:29:20;98868.41;;;24.51;41.60
60170;BME280;46042;49.444;6.862;2023-07-13T10:31:49;98866.44;;;24.75;43.06
60170;BME280;46042;49.444;6.862;2023-07-13T10:34:16;98870.16;;;24.44;42.94
60170;BME280;46042;49.444;6.862;2023-07-13T10:36:46;98875.47;;;24.37;46.56
60170;BME280;46042;49.444;6.862;2023-07-13T10:39:26;98871.47;;;24.63;51.14
60170;BME280;46042;49.444;6.862;2023-07-13T10:41:57;98870.56;;;25.66;46.01
60170;BME280;46042;49.444;6.862;2023-07-13T10:44:30;98875.69;;;25.18;44.31
60170;BME280;46042;49.444;6.862;2023-07-13T10:47:03;98870.00;;;25.12;46.17
60170;BME280;46042;49.444;6.862;2023-07-13T10:49:34;98879.09;;;24.75;40.69
60170;BME280;46042;49.444;6.862;2023-07-13T10:52:03;98877.81;;;24.85;42.30
60170;BME280;46042;49.444;6.862;2023-07-13T10:59:39;98886.94;;;23.78;44.11
60170;BME280;46042;49.444;6.862;2023-07-13T11:04:48;98884.22;;;24.01;45.07
60170;BME280;46042;49.444;6.862;2023-07-13T11:07:25;98884.97;;;24.48;42.80
60170;BME280;46042;49.444;6.862;2023-07-13T11:09:55;98887.38;;;24.58;40.77
60170;BME280;46042;49.444;6.862;2023-07-13T11:17:48;98885.50;;;24.43;47.25
60170;BME280;46042;49.444;6.862;2023-07-13T11:22:49;98884.56;;;24.66;44.23
60170;BME280;46042;49.444;6.862;2023-07-13T11:27:51;98888.16;;;25.04;41.20
60170;BME280;46042;49.444;6.862;2023-07-13T11:33:14;98883.25;;;24.47;40.85
60170;BME280;46042;49.444;6.862;2023-07-13T11:38:39;98886.22;;;24.07;42.85
60170;BME280;46042;49.444;6.862;2023-07-13T11:41:15;98883.75;;;23.97;43.58
60170;BME280;46042;49.444;6.862;2023-07-13T11:43:44;98885.97;;;23.94;44.04
60170;BME280;46042;49.444;6.862;2023-07-13T11:46:19;98893.97;;;24.02;43.79
60170;BME280;46042;49.444;6.862;2023-07-13T11:48:48;98892.28;;;24.01;42.13
60170;BME280;46042;49.444;6.862;2023-07-13T11:51:26;98888.75;;;24.39;42.97
60170;BME280;46042;49.444;6.862;2023-07-13T11:53:55;98888.09;;;24.67;43.35
60170;BME280;46042;49.444;6.862;2023-07-13T11:56:25;98894.69;;;24.64;42.92
60170;BME280;46042;49.444;6.862;2023-07-13T11:58:54;98889.13;;;24.66;42.54
60170;BME280;46042;49.444;6.862;2023-07-13T12:01:29;98895.69;;;24.18;40.72
60170;BME280;46042;49.444;6.862;2023-07-13T12:04:03;98888.94;;;23.99;40.01
60170;BME280;46042;49.444;6.862;2023-07-13T12:06:33;98885.44;;;23.98;42.96
60170;BME280;46042;49.444;6.862;2023-07-13T12:09:11;98895.38;;;23.75;41.78
60170;BME280;46042;49.444;6.862;2023-07-13T12:11:44;98891.88;;;24.12;42.85
60170;BME280;46042;49.444;6.862;2023-07-13T12:14:16;98893.97;;;24.40;40.03
60170;BME280;46042;49.444;6.862;2023-07-13T12:16:44;98889.66;;;24.16;40.56
60170;BME280;46042;49.444;6.862;2023-07-13T12:19:21;98889.88;;;24.90;40.22
60170;BME280;46042;49.444;6.862;2023-07-13T12:21:48;98887.94;;;25.20;41.78
60170;BME280;46042;49.444;6.862;2023-07-13T12:24:17;98887.09;;;25.20;42.04
60170;BME280;46042;49.444;6.862;2023-07-13T12:26:50;98896.31;;;25.25;39.30
60170;BME280;46042;49.444;6.862;2023-07-13T12:29:18;98887.56;;;24.87;41.31
60170;BME280;46042;49.444;6.862;2023-07-13T12:31:47;98881.69;;;24.83;42.31
60170;BME280;46042;49.444;6.862;2023-07-13T12:34:21;98895.34;;;24.81;39.38
60170;BME280;46042;49.444;6.862;2023-07-13T12:37:11;98894.41;;;24.59;39.52
60170;BME280;46042;49.444;6.862;2023-07-13T12:39:38;98894.69;;;24.49;40.49
60170;BME280;46042;49.444;6.862;2023-07-13T12:42:27;98893.13;;;24.70;38.75
60170;BME280;46042;49.444;6.862;2023-07-13T12:44:58;98892.72;;;24.88;36.89
60170;BME280;46042;49.444;6.862;2023-07-13T12:47:27;98892.81;;;25.10;36.65
60170;BME280;46042;49.444;6.862;2023-07-13T12:49:57;98889.84;;;25.85;36.32
60170;BME280;46042;49.444;6.862;2023-07-13T12:52:33;98890.66;;;25.85;35.90
60170;BME280;46042;49.444;6.862;2023-07-13T12:55:06;98894.56;;;25.83;37.71
60170;BME280;46042;49.444;6.862;2023-07-13T12:57:41;98892.81;;;25.68;39.50
60170;BME280;46042;49.444;6.862;2023-07-13T13:00:32;98888.13;;;26.06;39.40
60170;BME280;46042;49.444;6.862;2023-07-13T13:03:21;98882.34;;;27.28;36.12
60170;BME280;46042;49.444;6.862;2023-07-13T13:06:03;98888.78;;;27.20;35.67
60170;BME280;46042;49.444;6.862;2023-07-13T13:08:36;98889.81;;;26.70;36.04
60170;BME280;46042;49.444;6.862;2023-07-13T13:11:03;98889.53;;;26.94;39.65
60170;BME280;46042;49.444;6.862;2023-07-13T13:13:31;98894.19;;;26.78;36.15
60170;BME280;46042;49.444;6.862;2023-07-13T13:16:02;98891.44;;;26.30;36.08
60170;BME280;46042;49.444;6.862;2023-07-13T13:18:33;98889.94;;;26.20;40.12
60170;BME280;46042;49.444;6.862;2023-07-13T13:20:59;98905.53;;;25.38;38.57
60170;BME280;46042;49.444;6.862;2023-07-13T13:23:27;98900.59;;;25.05;38.91
60170;BME280;46042;49.444;6.862;2023-07-13T13:25:54;98905.13;;;24.82;36.46
60170;BME280;46042;49.444;6.862;2023-07-13T13:28:21;98892.97;;;25.08;40.98
60170;BME280;46042;49.444;6.862;2023-07-13T13:30:50;98894.06;;;24.92;38.40
60170;BME280;46042;49.444;6.862;2023-07-13T13:33:20;98897.84;;;24.83;41.68
60170;BME280;46042;49.444;6.862;2023-07-13T13:35:48;98892.25;;;24.99;39.39
60170;BME280;46042;49.444;6.862;2023-07-13T13:38:25;98895.13;;;25.13;38.47
60170;BME280;46042;49.444;6.862;2023-07-13T13:40:52;98885.06;;;25.07;38.41
60170;BME280;46042;49.444;6.862;2023-07-13T13:43:24;98890.84;;;25.19;37.69
60170;BME280;46042;49.444;6.862;2023-07-13T13:45:57;98886.88;;;25.36;41.76
60170;BME280;46042;49.444;6.862;2023-07-13T13:48:31;98891.19;;;25.16;35.67
60170;BME280;46042;49.444;6.862;2023-07-13T13:51:00;98882.75;;;25.04;37.96
60170;BME280;46042;49.444;6.862;2023-07-13T13:53:27;98885.06;;;25.07;37.54
60170;BME280;46042;49.444;6.862;2023-07-13T13:55:54;98890.34;;;24.78;36.56
60170;BME280;46042;49.444;6.862;2023-07-13T13:58:21;98888.38;;;25.02;39.18